CYFBCYIO

Guest
Details From CYFB - Iqaluit
To CYIO - Pond Inlet
Flight Number -
Tags Generated
Created
Modified
Stats Distance 573 nm / 1,062 km
Max Altitude 0 ft / 0 m
Waypoints 2
Social Downloads 2
Likes 0
Share VATSIM

Download

Looking for another format? Having issues loading an existing format? Contact us
Advertisement - Login to hide

Notes

Generated

Route

CYFB CYIO

ID Type Via Altitude Latitude Longitude Leg Dist Tot Dist Heading (true) Name
O CYFB APT - 0 ft / 0 m 63.76497˚ -68.57398˚ - 0 nm - -
O CYIO APT - 0 ft / 0 m 72.67831˚ -77.97383˚ 573 nm 573 nm 343° / 334° POND INLET

Altitude Profile

Advertisement - Login to hide

Weather


0- 5 10 15 20 25 30 35+ Temperature / ° C

Clouds and Precipitation
Forecast for 2017-12-12 00:00 UTC. Updated an hour ago

Ground ~20,000 ft ~40,000 ft Winds

CYFB

Details ICAO CYFB (YFB)
Name Iqaluit
Region Canada
Timezone America/Iqaluit (UTC-5.0)
Stats Elevation 110 ft / 34 m (AMSL)
Location 63.756565° -68.556058°
Runways 1
Magnetic Variation 27.546° W

METAR

CYFB 120000Z 31005KT 10SM -SN OVC025 M16/M18 A2941 RMK SC8 SLP965

Decode

TAF

TAF TAF CYFB 112343Z 1200/1224 32012KT P6SM FEW015 SCT030 TEMPO 1200/1212 4SM -SN OVC015 FM121200 32006KT P6SM -SN BKN025 BECMG 1216/1218 VRB03KT RMK NXT FCST BY 120600Z

Decode

Departure Runways

ID Width Length Bearing (true) Bearing (mag) Surface Threshold Offset Overrun Length
17 200 ft / 61 m 8,605 ft / 2,623 m 135.58° 163.13° Asphalt 0 ft / 0 m 210 ft / 64 m
35 200 ft / 61 m 8,605 ft / 2,623 m 315.62° 343.17° Asphalt 0 ft / 0 m 243 ft / 74 m

CYIO

Details ICAO CYIO (YIO)
Name POND INLET
Region Canada
Timezone America/Iqaluit (UTC-5.0)
Stats Elevation 181 ft / 55 m (AMSL)
Location 72.683334° -77.966664°
Runways 1
Magnetic Variation 36.784° W

METAR

CYIO 120000Z AUTO 22007KT 9SM OVC075 M22/M25 A2940 RMK SLP966

Decode

TAF

TAF AMD TAF AMD CYIO 112120Z 1121/1207 20008KT P6SM IC FEW020 BKN080 TEMPO 1121/1207 3SM IC BR OVC020 RMK NXT FCST BY 120100Z

Decode

Destination Runways

ID Width Length Bearing (true) Bearing (mag) Surface Threshold Offset Overrun Length
02T 100 ft / 30 m 3,986 ft / 1,215 m 22.99° 59.77° Gravel 0 ft / 0 m 0 ft / 0 m
20T 100 ft / 30 m 3,986 ft / 1,215 m 203.00° 239.78° Gravel 0 ft / 0 m 0 ft / 0 m